Time;durP1;ratioP1;P1;durP2;ratioP2;P2;SDS_P1;SDS_P2;PMS_P1;PMS_P2;Temp;Humidity;BMP_temperature;BMP_pressure;BME280_temperature;BME280_humidity;BME280_pressure;Samples;Min_cycle;Max_cycle;Signal;HPM_P1;HPM_P2
2020/12/25 00:00:14;;;;;;;399.90;66.63;;;9.80;93.20;;;;;;5036719;28;20042;-69
2020/12/25 00:02:40;;;;;;;270.47;66.23;;;9.70;93.30;;;;;;5035725;28;20041;-68
2020/12/25 00:05:06;;;;;;;273.40;65.83;;;9.80;93.40;;;;;;5035520;28;20076;-69
2020/12/25 00:07:32;;;;;;;221.63;63.88;;;9.70;93.40;;;;;;5035446;28;20025;-69
2020/12/25 00:09:58;;;;;;;311.63;64.33;;;9.70;93.50;;;;;;5035730;28;20017;-69
2020/12/25 00:12:23;;;;;;;266.20;63.50;;;9.70;93.40;;;;;;5035401;28;20659;-68
2020/12/25 00:14:49;;;;;;;340.77;65.63;;;9.70;93.50;;;;;;5035829;28;20075;-70
2020/12/25 00:17:15;;;;;;;226.93;64.70;;;9.70;93.40;;;;;;5035452;28;20482;-68
2020/12/25 00:19:41;;;;;;;182.90;65.03;;;9.70;93.30;;;;;;5035583;28;20096;-68
2020/12/25 00:22:06;;;;;;;203.85;64.55;;;9.70;93.40;;;;;;5035421;28;20029;-69
2020/12/25 00:24:32;;;;;;;152.32;61.00;;;9.80;93.40;;;;;;5035527;28;20038;-69
2020/12/25 00:26:58;;;;;;;229.30;61.35;;;9.80;93.50;;;;;;5035213;28;20029;-69
2020/12/25 00:29:23;;;;;;;195.97;62.23;;;9.80;93.50;;;;;;5035275;28;20113;-69
2020/12/25 00:31:49;;;;;;;166.38;57.30;;;9.80;93.40;;;;;;5035290;28;20057;-69
2020/12/25 00:34:15;;;;;;;178.32;58.47;;;9.90;93.60;;;;;;5035304;28;20474;-69
2020/12/25 00:36:46;;;;;;;294.48;58.55;;;9.90;93.30;;;;;;5034893;28;20498;-69
2020/12/25 00:39:14;;;;;;;305.88;60.75;;;9.90;93.10;;;;;;5035148;28;20053;-69
2020/12/25 00:41:47;;;;;;;169.00;60.83;;;9.80;92.90;;;;;;5035223;28;20037;-69
2020/12/25 00:44:13;;;;;;;221.73;59.78;;;9.80;92.90;;;;;;5035236;28;20049;-69
2020/12/25 00:46:39;;;;;;;170.82;60.90;;;9.80;92.90;;;;;;5035034;28;20474;-68
2020/12/25 00:49:05;;;;;;;206.65;62.58;;;9.80;92.90;;;;;;5035105;28;20450;-69
2020/12/25 00:51:31;;;;;;;181.98;63.88;;;9.70;93.00;;;;;;5034787;28;20442;-69
2020/12/25 00:53:57;;;;;;;154.23;61.33;;;9.80;93.00;;;;;;5034870;28;20078;-68
2020/12/25 00:56:23;;;;;;;138.40;60.65;;;9.70;93.00;;;;;;5034844;28;20509;-68
2020/12/25 00:58:48;;;;;;;134.20;59.78;;;9.80;93.00;;;;;;5034867;28;20067;-68
2020/12/25 01:01:15;;;;;;;150.18;60.70;;;9.80;93.00;;;;;;5034649;28;20037;-69
2020/12/25 01:03:42;;;;;;;123.80;59.97;;;9.80;93.00;;;;;;5034968;28;20022;-68
2020/12/25 01:06:10;;;;;;;132.55;60.03;;;9.80;93.00;;;;;;5034684;28;20033;-69
2020/12/25 01:08:36;;;;;;;143.07;61.53;;;9.80;93.00;;;;;;5034408;28;20104;-68
2020/12/25 01:11:01;;;;;;;133.80;58.10;;;9.80;93.00;;;;;;5034038;28;20100;-69
2020/12/25 01:13:27;;;;;;;129.07;56.17;;;9.80;93.00;;;;;;5034515;28;20041;-69
2020/12/25 01:15:53;;;;;;;122.60;56.50;;;9.80;92.90;;;;;;5034660;28;20021;-68
2020/12/25 01:18:18;;;;;;;125.70;57.03;;;9.80;92.90;;;;;;5034489;28;20025;-68
2020/12/25 01:20:44;;;;;;;121.32;55.80;;;9.90;92.90;;;;;;5034205;28;20088;-68
2020/12/25 01:23:10;;;;;;;121.45;55.55;;;9.80;92.80;;;;;;5034337;28;20028;-68
2020/12/25 01:25:35;;;;;;;129.43;58.03;;;9.80;92.80;;;;;;5032735;28;20045;-68
2020/12/25 01:28:01;;;;;;;152.50;59.15;;;9.80;92.90;;;;;;5034600;28;20021;-68
2020/12/25 01:30:26;;;;;;;127.17;55.90;;;9.80;92.90;;;;;;5034745;28;20025;-68
2020/12/25 01:32:52;;;;;;;124.95;57.08;;;9.90;92.90;;;;;;5034078;28;20060;-69
2020/12/25 01:35:18;;;;;;;120.80;56.67;;;9.90;92.80;;;;;;5033862;28;20022;-68
2020/12/25 01:37:44;;;;;;;116.43;54.50;;;9.90;92.80;;;;;;5033613;28;20060;-68
2020/12/25 01:40:09;;;;;;;119.55;54.13;;;9.90;92.80;;;;;;5033905;28;20056;-68
2020/12/25 01:42:36;;;;;;;124.18;54.30;;;9.90;92.80;;;;;;5033797;28;20025;-68
2020/12/25 01:45:04;;;;;;;114.28;52.50;;;9.90;92.80;;;;;;5033752;28;20132;-68
2020/12/25 01:47:30;;;;;;;123.00;52.50;;;9.90;92.80;;;;;;5033785;28;20033;-68
2020/12/25 01:49:56;;;;;;;129.82;54.92;;;9.90;92.70;;;;;;5033879;28;20029;-68
2020/12/25 01:52:23;;;;;;;121.35;54.47;;;9.90;92.60;;;;;;5033983;28;20025;-69
2020/12/25 01:54:49;;;;;;;108.70;52.88;;;9.90;92.50;;;;;;5033797;28;20037;-68
2020/12/25 01:57:16;;;;;;;119.28;51.85;;;9.80;92.50;;;;;;5033605;28;20021;-69
2020/12/25 01:59:42;;;;;;;110.07;52.05;;;9.80;92.60;;;;;;5030453;28;20501;-69
2020/12/25 02:02:08;;;;;;;112.13;50.90;;;9.80;92.60;;;;;;5030945;28;20041;-69
2020/12/25 02:04:34;;;;;;;106.80;48.58;;;9.80;92.60;;;;;;5032057;28;20418;-69
2020/12/25 02:07:00;;;;;;;107.37;50.80;;;9.80;92.70;;;;;;5033183;28;20028;-68
2020/12/25 02:09:26;;;;;;;92.50;47.33;;;9.80;92.70;;;;;;5033136;28;20104;-69
2020/12/25 02:11:53;;;;;;;99.53;47.88;;;9.80;92.70;;;;;;5033608;28;20101;-68
2020/12/25 02:14:19;;;;;;;114.82;49.65;;;9.80;92.60;;;;;;5033247;28;20053;-68
2020/12/25 02:16:45;;;;;;;117.47;49.85;;;9.70;92.60;;;;;;5033315;28;20437;-69
2020/12/25 02:19:11;;;;;;;116.00;49.27;;;9.70;92.70;;;;;;5033227;28;20100;-69
2020/12/25 02:21:37;;;;;;;118.55;51.10;;;9.70;92.60;;;;;;5032901;28;20059;-68
2020/12/25 02:24:03;;;;;;;118.53;49.38;;;9.70;92.60;;;;;;5032385;28;20025;-69
2020/12/25 02:26:30;;;;;;;126.20;49.80;;;9.70;92.70;;;;;;5033203;28;20083;-68
2020/12/25 02:28:56;;;;;;;123.60;51.72;;;9.70;92.70;;;;;;5033004;28;20105;-69
2020/12/25 02:31:21;;;;;;;129.73;51.63;;;9.70;92.60;;;;;;5033102;28;20410;-68
2020/12/25 02:33:47;;;;;;;116.00;51.83;;;9.70;92.70;;;;;;5033137;28;20040;-69
2020/12/25 02:36:13;;;;;;;119.97;51.45;;;9.70;92.80;;;;;;5032681;28;20133;-68
2020/12/25 02:38:38;;;;;;;124.90;51.53;;;9.70;92.60;;;;;;5033095;28;20025;-69
2020/12/25 02:41:04;;;;;;;123.67;49.93;;;9.70;92.70;;;;;;5033055;28;20072;-68
2020/12/25 02:43:30;;;;;;;122.70;48.20;;;9.70;92.60;;;;;;5033160;28;20021;-69
2020/12/25 02:45:56;;;;;;;123.70;48.47;;;9.70;92.60;;;;;;5033005;28;20029;-68
2020/12/25 02:48:21;;;;;;;142.27;51.07;;;9.70;92.60;;;;;;5033201;28;20028;-69
2020/12/25 02:50:47;;;;;;;128.63;49.40;;;9.60;92.60;;;;;;5032844;28;20032;-68
2020/12/25 02:53:13;;;;;;;137.85;50.97;;;9.70;92.70;;;;;;5032754;28;20109;-69
2020/12/25 02:55:39;;;;;;;138.07;49.53;;;9.70;92.60;;;;;;5032813;28;20476;-68
2020/12/25 02:58:04;;;;;;;134.18;48.78;;;9.70;92.60;;;;;;5032630;28;20017;-68
2020/12/25 03:00:30;;;;;;;206.90;47.17;;;9.80;92.60;;;;;;5033061;28;20025;-68
2020/12/25 03:02:56;;;;;;;156.27;47.00;;;9.70;92.40;;;;;;5032867;28;20033;-68
2020/12/25 03:05:21;;;;;;;189.27;50.23;;;9.70;92.40;;;;;;5032803;28;20080;-68
2020/12/25 03:07:47;;;;;;;146.60;48.47;;;9.60;92.50;;;;;;5033099;28;20421;-69
2020/12/25 03:10:12;;;;;;;212.02;46.00;;;9.70;92.60;;;;;;5033250;28;20034;-68
2020/12/25 03:12:38;;;;;;;185.70;48.33;;;9.70;92.60;;;;;;5032701;28;20030;-69
2020/12/25 03:15:04;;;;;;;150.07;46.95;;;9.60;92.50;;;;;;5032769;28;20029;-68
2020/12/25 03:17:30;;;;;;;162.93;43.85;;;9.70;92.60;;;;;;5032727;28;20390;-68
2020/12/25 03:19:55;;;;;;;188.40;43.47;;;9.70;92.70;;;;;;5032728;28;20529;-68
2020/12/25 03:22:21;;;;;;;272.20;47.42;;;9.70;92.70;;;;;;5032616;28;20028;-68
2020/12/25 03:24:47;;;;;;;224.18;44.80;;;9.70;92.70;;;;;;5032745;28;20459;-68
2020/12/25 03:27:12;;;;;;;262.17;47.67;;;9.70;92.70;;;;;;5032603;28;20340;-68
2020/12/25 03:29:38;;;;;;;219.53;45.27;;;9.70;92.70;;;;;;5032580;28;20072;-68
2020/12/25 03:32:04;;;;;;;163.98;44.90;;;9.70;92.60;;;;;;5032379;28;20064;-69
2020/12/25 03:34:29;;;;;;;158.63;44.63;;;9.70;92.70;;;;;;5033074;28;20025;-68
2020/12/25 03:36:55;;;;;;;247.77;47.55;;;9.70;92.70;;;;;;5036308;28;20044;-68
2020/12/25 03:39:21;;;;;;;159.68;45.75;;;9.70;92.70;;;;;;5036606;28;20095;-68
2020/12/25 03:41:47;;;;;;;213.37;46.40;;;9.80;92.70;;;;;;5036503;28;20482;-68
2020/12/25 03:44:13;;;;;;;176.23;45.37;;;9.80;92.70;;;;;;5036331;28;20394;-68
2020/12/25 03:46:39;;;;;;;189.05;47.38;;;9.80;92.70;;;;;;5036017;28;20021;-68
2020/12/25 03:49:07;;;;;;;131.02;43.17;;;9.80;92.70;;;;;;5035982;28;20041;-69
2020/12/25 03:51:33;;;;;;;172.50;44.97;;;9.80;92.70;;;;;;5036095;28;20394;-69
2020/12/25 03:53:59;;;;;;;138.27;44.70;;;9.80;92.70;;;;;;5036097;28;20140;-70
2020/12/25 03:56:25;;;;;;;173.90;45.28;;;9.80;92.70;;;;;;5035834;28;20535;-68
2020/12/25 03:58:50;;;;;;;185.73;47.45;;;9.80;92.70;;;;;;5035965;28;20398;-68
2020/12/25 04:01:17;;;;;;;126.05;43.03;;;9.80;92.70;;;;;;5035858;28;20401;-68
2020/12/25 04:03:43;;;;;;;181.80;45.00;;;9.80;92.70;;;;;;5036051;28;20037;-69
2020/12/25 04:06:08;;;;;;;137.55;39.47;;;9.80;92.60;;;;;;5035491;28;20033;-68
2020/12/25 04:08:34;;;;;;;155.88;44.45;;;9.80;92.60;;;;;;5035890;28;20060;-69
2020/12/25 04:11:00;;;;;;;373.25;48.88;;;9.80;92.60;;;;;;5035644;28;20390;-70
2020/12/25 04:13:26;;;;;;;179.65;45.58;;;9.80;92.50;;;;;;5035793;28;20037;-68
2020/12/25 04:15:51;;;;;;;216.20;46.88;;;9.80;92.50;;;;;;5035560;28;20040;-68
2020/12/25 04:18:17;;;;;;;264.73;45.67;;;9.80;92.50;;;;;;5035929;28;20393;-69
2020/12/25 04:20:43;;;;;;;176.02;43.95;;;9.80;92.40;;;;;;5035327;28;20041;-69
2020/12/25 04:23:08;;;;;;;196.67;45.43;;;9.80;92.40;;;;;;5035674;28;20374;-68
2020/12/25 04:25:34;;;;;;;228.73;48.15;;;9.70;92.50;;;;;;5035566;28;20032;-68
2020/12/25 04:28:00;;;;;;;271.23;49.38;;;9.70;92.50;;;;;;5035660;28;20053;-68
2020/12/25 04:30:25;;;;;;;187.50;45.60;;;9.70;92.60;;;;;;5035555;28;20029;-69
2020/12/25 04:32:51;;;;;;;193.00;44.70;;;9.70;92.60;;;;;;5035298;28;20060;-69
2020/12/25 04:35:17;;;;;;;250.20;47.90;;;9.70;92.60;;;;;;5035212;28;20028;-69
2020/12/25 04:37:42;;;;;;;197.10;46.83;;;9.70;92.70;;;;;;5034707;28;20056;-68
2020/12/25 04:40:08;;;;;;;223.52;48.75;;;9.70;92.60;;;;;;5035285;28;20021;-69
2020/12/25 04:42:40;;;;;;;294.30;49.08;;;9.70;92.60;;;;;;5035305;28;20064;-69
2020/12/25 04:45:07;;;;;;;139.70;44.10;;;9.70;92.70;;;;;;5035179;28;20037;-69
2020/12/25 04:47:37;;;;;;;159.95;43.83;;;9.70;92.70;;;;;;5033986;28;20108;-69
2020/12/25 04:50:04;;;;;;;177.00;46.90;;;9.70;92.70;;;;;;5035280;28;20084;-69
2020/12/25 04:52:30;;;;;;;188.98;46.13;;;9.70;92.80;;;;;;5035144;28;20562;-69
2020/12/25 04:54:55;;;;;;;173.40;44.35;;;9.70;92.80;;;;;;5035038;28;20096;-68
2020/12/25 04:57:21;;;;;;;168.93;44.45;;;9.70;92.80;;;;;;5034919;28;20030;-69
2020/12/25 04:59:47;;;;;;;160.07;45.67;;;9.80;92.80;;;;;;5034765;28;20097;-69
2020/12/25 05:02:15;;;;;;;188.80;48.67;;;9.80;92.80;;;;;;5034654;28;20029;-69
2020/12/25 05:04:41;;;;;;;155.07;47.58;;;9.80;92.80;;;;;;5035028;28;20048;-69
2020/12/25 05:07:07;;;;;;;141.60;44.38;;;9.80;92.80;;;;;;5034901;28;20032;-68
2020/12/25 05:09:32;;;;;;;183.93;43.10;;;9.80;92.70;;;;;;5034799;28;20026;-68
2020/12/25 05:11:59;;;;;;;178.95;47.85;;;9.80;92.70;;;;;;5034835;28;20030;-68
2020/12/25 05:14:29;;;;;;;119.13;43.80;;;9.80;92.70;;;;;;5034651;28;20040;-68
2020/12/25 05:16:57;;;;;;;118.05;44.17;;;9.80;92.70;;;;;;5034616;28;20040;-70
2020/12/25 05:19:30;;;;;;;142.23;47.40;;;9.80;92.70;;;;;;5034486;28;20049;-69
2020/12/25 05:21:58;;;;;;;160.18;52.97;;;9.80;92.70;;;;;;5034262;28;20041;-68
2020/12/25 05:24:24;;;;;;;134.30;50.63;;;9.80;92.70;;;;;;5034590;28;20506;-69
2020/12/25 05:26:55;;;;;;;117.17;47.17;;;9.80;92.70;;;;;;5034639;28;20038;-68
2020/12/25 05:29:25;;;;;;;111.32;43.65;;;9.90;92.60;;;;;;5034195;28;20025;-69
2020/12/25 05:31:52;;;;;;;110.88;44.72;;;9.90;92.60;;;;;;5034343;28;20387;-68
2020/12/25 05:34:19;;;;;;;118.53;45.67;;;9.90;92.60;;;;;;5033928;28;20492;-69
2020/12/25 05:36:52;;;;;;;110.47;44.20;;;9.90;92.60;;;;;;5033874;28;20045;-69
2020/12/25 05:39:29;;;;;;;103.63;43.80;;;9.90;92.60;;;;;;5034129;28;20367;-69
2020/12/25 05:42:06;;;;;;;99.60;42.88;;;9.90;92.60;;;;;;5033864;28;20548;-69
2020/12/25 05:44:46;;;;;;;84.45;38.00;;;9.90;92.50;;;;;;5034109;28;20025;-68
2020/12/25 05:47:16;;;;;;;85.65;36.25;;;10.00;92.50;;;;;;5033940;28;20038;-68
2020/12/25 05:49:43;;;;;;;63.70;29.83;;;9.90;92.50;;;;;;5033947;28;20152;-68
2020/12/25 05:52:10;;;;;;;45.63;23.70;;;9.90;92.40;;;;;;5033797;28;20063;-69
2020/12/25 05:54:36;;;;;;;51.67;23.98;;;9.90;92.40;;;;;;5033847;28;20037;-69
2020/12/25 05:57:07;;;;;;;40.72;20.17;;;9.90;92.30;;;;;;5033443;28;20033;-69
2020/12/25 05:59:33;;;;;;;34.38;17.00;;;9.90;92.10;;;;;;5033824;28;20099;-69
2020/12/25 06:02:00;;;;;;;29.50;15.23;;;9.90;92.00;;;;;;5033792;28;20045;-68
2020/12/25 06:04:27;;;;;;;26.85;12.90;;;9.90;91.80;;;;;;5033805;28;20040;-69
2020/12/25 06:06:54;;;;;;;23.05;11.40;;;9.80;91.60;;;;;;5033548;28;20021;-68
2020/12/25 06:09:27;;;;;;;23.92;11.35;;;9.80;91.60;;;;;;5033332;28;20495;-69
2020/12/25 06:11:53;;;;;;;8.27;5.47;;;9.80;91.60;;;;;;5033466;28;20018;-68
2020/12/25 06:14:19;;;;;;;10.65;5.63;;;9.80;91.50;;;;;;5033730;28;20498;-68
2020/12/25 06:16:51;;;;;;;5.47;2.85;;;9.80;91.20;;;;;;5033597;28;20576;-68
2020/12/25 06:19:45;;;;;;;4.03;1.80;;;9.70;90.50;;;;;;5033308;28;20036;-68
2020/12/25 06:22:22;;;;;;;3.95;1.45;;;9.70;89.40;;;;;;5033548;28;20030;-68
2020/12/25 06:24:50;;;;;;;9.60;4.73;;;9.60;87.10;;;;;;5033307;28;20024;-68
2020/12/25 06:27:16;;;;;;;12.70;6.13;;;9.50;88.80;;;;;;5033265;28;20021;-68
2020/12/25 06:29:43;;;;;;;10.53;5.03;;;9.50;90.00;;;;;;5033217;28;20021;-68
2020/12/25 06:32:12;;;;;;;6.07;2.80;;;9.40;90.10;;;;;;5033129;28;20045;-68
2020/12/25 06:34:53;;;;;;;14.70;7.70;;;9.40;89.70;;;;;;5033083;28;20421;-67
2020/12/25 06:37:19;;;;;;;16.20;10.87;;;9.30;90.00;;;;;;5033225;28;20068;-67
2020/12/25 06:39:52;;;;;;;11.87;6.90;;;9.30;90.30;;;;;;5033378;28;20067;-68
2020/12/25 06:42:28;;;;;;;8.73;4.50;;;9.40;90.60;;;;;;5032935;28;20038;-68
2020/12/25 06:44:57;;;;;;;11.87;3.23;;;9.40;90.80;;;;;;5033033;28;20076;-68
2020/12/25 06:47:36;;;;;;;7.17;3.17;;;9.30;90.90;;;;;;5033182;28;20108;-68
2020/12/25 06:50:11;;;;;;;11.25;2.40;;;9.40;91.10;;;;;;5033184;28;20029;-68
2020/12/25 06:52:53;;;;;;;4.47;1.13;;;9.30;90.90;;;;;;5032975;28;20025;-68
2020/12/25 06:55:21;;;;;;;1.67;0.67;;;9.30;90.70;;;;;;5032711;28;20100;-68
2020/12/25 06:57:49;;;;;;;4.10;0.90;;;9.30;90.50;;;;;;5033204;28;20466;-68
2020/12/25 07:00:21;;;;;;;1.97;0.60;;;9.30;90.10;;;;;;5033188;28;20148;-68
2020/12/25 07:02:48;;;;;;;2.22;0.60;;;9.20;89.80;;;;;;5032822;28;20501;-68
2020/12/25 07:05:13;;;;;;;1.30;0.40;;;9.20;90.00;;;;;;5033113;28;20041;-68
2020/12/25 07:07:39;;;;;;;0.77;0.40;;;9.10;90.00;;;;;;5032829;28;20033;-68
2020/12/25 07:10:12;;;;;;;2.37;0.63;;;9.10;89.60;;;;;;5033170;28;20421;-68
2020/12/25 07:12:39;;;;;;;1.90;0.80;;;9.10;90.00;;;;;;5036898;28;20033;-68
2020/12/25 07:15:06;;;;;;;4.03;0.67;;;9.10;89.70;;;;;;5036742;28;20035;-68
2020/12/25 07:17:32;;;;;;;1.50;0.50;;;9.00;89.90;;;;;;5036462;28;20036;-68
2020/12/25 07:19:58;;;;;;;3.10;0.90;;;9.00;90.00;;;;;;5036606;28;20101;-68
2020/12/25 07:22:24;;;;;;;2.00;0.90;;;9.00;90.40;;;;;;5036924;28;20108;-69
2020/12/25 07:24:50;;;;;;;2.03;0.60;;;9.00;90.40;;;;;;5036514;28;20060;-68
2020/12/25 07:27:16;;;;;;;0.90;0.40;;;9.00;90.40;;;;;;5036490;28;20092;-67
2020/12/25 07:29:43;;;;;;;3.70;0.90;;;8.90;90.20;;;;;;5036656;28;20388;-68
2020/12/25 07:32:11;;;;;;;1.80;0.50;;;8.90;90.50;;;;;;5036249;28;20029;-68
2020/12/25 07:34:37;;;;;;;2.27;0.80;;;8.90;90.50;;;;;;5036223;28;20034;-68
2020/12/25 07:37:04;;;;;;;2.50;0.70;;;8.80;90.60;;;;;;5035992;28;20084;-68
2020/12/25 07:39:30;;;;;;;2.33;0.90;;;8.80;90.90;;;;;;5036424;28;20028;-70
2020/12/25 07:41:59;;;;;;;7.67;1.07;;;8.80;90.90;;;;;;5036430;28;20041;-68
2020/12/25 07:44:25;;;;;;;3.83;2.03;;;8.70;91.00;;;;;;5036183;28;20025;-67
2020/12/25 07:46:51;;;;;;;5.13;1.80;;;8.70;91.00;;;;;;5036105;28;20033;-68
2020/12/25 07:49:19;;;;;;;2.43;1.50;;;8.70;91.00;;;;;;5036266;28;20033;-67
2020/12/25 07:51:49;;;;;;;2.40;1.03;;;8.70;91.20;;;;;;5035997;28;20105;-68
2020/12/25 07:54:16;;;;;;;2.57;1.00;;;8.70;91.10;;;;;;5036444;28;20034;-68
2020/12/25 07:56:42;;;;;;;1.13;0.60;;;8.70;90.60;;;;;;5035697;28;20548;-69
2020/12/25 07:59:08;;;;;;;1.47;0.70;;;8.60;90.60;;;;;;5036194;28;20029;-67
2020/12/25 08:01:34;;;;;;;1.03;0.63;;;8.60;90.50;;;;;;5035978;28;20044;-68
2020/12/25 08:04:02;;;;;;;1.17;0.70;;;8.50;90.80;;;;;;5034342;28;20033;-69
2020/12/25 08:06:29;;;;;;;1.40;0.67;;;8.60;91.00;;;;;;5032969;28;20040;-67
2020/12/25 08:09:01;;;;;;;1.87;0.90;;;8.60;91.40;;;;;;5032989;28;20512;-67
2020/12/25 08:11:27;;;;;;;1.73;1.10;;;8.60;91.50;;;;;;5035031;28;20061;-67
2020/12/25 08:13:58;;;;;;;2.20;1.20;;;8.70;91.20;;;;;;5035606;28;20057;-66
2020/12/25 08:16:24;;;;;;;3.73;1.37;;;8.70;91.20;;;;;;5034334;28;20378;-66
2020/12/25 08:18:50;;;;;;;2.27;1.47;;;8.70;91.50;;;;;;5035088;28;20025;-67
2020/12/25 08:21:17;;;;;;;2.80;1.40;;;8.70;91.40;;;;;;5035247;28;20437;-66
2020/12/25 08:23:43;;;;;;;2.60;1.27;;;8.70;91.40;;;;;;5035235;28;20059;-68
2020/12/25 08:26:09;;;;;;;3.57;1.40;;;8.80;91.30;;;;;;5035161;28;20029;-69
2020/12/25 08:28:35;;;;;;;3.00;1.73;;;8.90;90.90;;;;;;5035324;28;20061;-68
2020/12/25 08:31:15;;;;;;;2.70;1.80;;;8.90;90.80;;;;;;5034735;28;20029;-68
2020/12/25 08:33:40;;;;;;;4.10;1.83;;;8.90;90.90;;;;;;5034727;28;20292;-68
2020/12/25 08:36:12;;;;;;;3.80;2.10;;;8.90;90.90;;;;;;5034560;28;20045;-69
2020/12/25 08:38:42;;;;;;;4.83;2.90;;;8.80;91.00;;;;;;5035077;28;20040;-68
2020/12/25 08:41:07;;;;;;;9.10;7.43;;;8.90;91.10;;;;;;5034789;28;20042;-69
2020/12/25 08:43:33;;;;;;;4.77;2.90;;;8.80;91.10;;;;;;5032817;28;20025;-69
2020/12/25 08:46:00;;;;;;;4.87;2.73;;;8.90;91.40;;;;;;5032007;28;20025;-69
2020/12/25 08:48:27;;;;;;;4.70;2.43;;;8.90;91.70;;;;;;5032276;28;20819;-68
2020/12/25 08:51:09;;;;;;;6.50;2.30;;;8.90;91.70;;;;;;5034282;28;20025;-68
2020/12/25 08:53:35;;;;;;;2.73;2.00;;;8.90;91.70;;;;;;5034239;28;20077;-69
2020/12/25 08:56:20;;;;;;;4.57;2.10;;;8.90;91.70;;;;;;5034619;28;20045;-69
2020/12/25 08:58:56;;;;;;;4.20;2.50;;;9.00;91.70;;;;;;5034510;28;20025;-69
2020/12/25 09:01:22;;;;;;;6.13;3.20;;;9.00;91.80;;;;;;5032316;28;20508;-68
2020/12/25 09:03:48;;;;;;;5.73;2.80;;;9.00;91.80;;;;;;5031905;28;20087;-68
2020/12/25 09:06:14;;;;;;;8.33;4.63;;;9.00;91.90;;;;;;5033880;28;20025;-68
2020/12/25 09:08:40;;;;;;;19.50;16.13;;;9.00;92.10;;;;;;5034633;28;20021;-68
2020/12/25 09:11:16;;;;;;;24.83;17.07;;;9.10;92.00;;;;;;5034542;28;20032;-68
2020/12/25 09:13:42;;;;;;;19.67;13.63;;;9.10;91.80;;;;;;5034652;28;20029;-69
2020/12/25 09:16:09;;;;;;;14.43;10.90;;;9.10;92.00;;;;;;5034362;28;20372;-68
2020/12/25 09:18:36;;;;;;;9.43;7.10;;;9.10;91.80;;;;;;5034247;28;20394;-72
2020/12/25 09:21:01;;;;;;;7.37;6.20;;;9.10;91.80;;;;;;5033862;28;20544;-69
2020/12/25 09:23:28;;;;;;;7.17;4.93;;;9.10;91.70;;;;;;5034343;28;20049;-68
2020/12/25 09:25:54;;;;;;;6.70;3.53;;;9.10;91.50;;;;;;5034139;28;20026;-69
2020/12/25 09:28:19;;;;;;;5.83;4.87;;;9.10;91.10;;;;;;5034314;28;20030;-69
2020/12/25 09:30:45;;;;;;;18.47;13.40;;;9.10;91.20;;;;;;5034206;28;20029;-73
2020/12/25 09:33:11;;;;;;;6.87;4.23;;;9.00;91.20;;;;;;5033539;28;20025;-69
2020/12/25 09:35:36;;;;;;;6.03;4.27;;;9.00;90.70;;;;;;5033518;28;20658;-69
2020/12/25 09:38:02;;;;;;;10.20;7.83;;;9.00;90.10;;;;;;5034114;28;20029;-68
2020/12/25 09:40:28;;;;;;;8.53;6.20;;;9.00;90.50;;;;;;5033523;28;20032;-68
2020/12/25 09:42:53;;;;;;;8.50;5.63;;;9.00;90.80;;;;;;5033410;28;20033;-68
2020/12/25 09:45:19;;;;;;;15.77;6.40;;;9.10;91.00;;;;;;5033824;28;20026;-69
2020/12/25 09:47:45;;;;;;;8.60;5.30;;;9.10;91.00;;;;;;5033383;28;20088;-67
2020/12/25 09:50:10;;;;;;;8.23;5.43;;;9.20;91.00;;;;;;5033476;28;20025;-68
2020/12/25 09:52:36;;;;;;;10.73;5.03;;;9.20;90.80;;;;;;5033863;28;20021;-68
2020/12/25 09:55:03;;;;;;;11.10;7.77;;;9.30;90.80;;;;;;5033192;28;20033;-68
2020/12/25 09:57:29;;;;;;;7.07;4.60;;;9.30;90.80;;;;;;5033528;28;20474;-68
2020/12/25 09:59:55;;;;;;;8.70;5.80;;;9.30;90.60;;;;;;5032721;28;20478;-67
2020/12/25 10:02:22;;;;;;;37.70;22.27;;;9.30;90.40;;;;;;5033121;28;20030;-68
2020/12/25 10:04:48;;;;;;;35.63;23.20;;;9.30;89.00;;;;;;5033544;28;20112;-68
2020/12/25 10:07:14;;;;;;;15.70;9.52;;;9.30;89.80;;;;;;5033271;28;20032;-69
2020/12/25 10:09:40;;;;;;;4.13;2.40;;;9.40;90.10;;;;;;5033488;28;20522;-68
2020/12/25 10:12:05;;;;;;;2.05;1.58;;;9.40;89.40;;;;;;5033170;28;20067;-69
2020/12/25 10:14:31;;;;;;;2.00;1.40;;;9.50;88.60;;;;;;5033384;28;20021;-68
2020/12/25 10:16:58;;;;;;;1.55;1.15;;;9.50;88.10;;;;;;5032608;28;20083;-68
2020/12/25 10:19:23;;;;;;;0.98;0.60;;;9.60;87.70;;;;;;5033035;28;20028;-68
2020/12/25 10:21:50;;;;;;;0.70;0.32;;;9.60;85.50;;;;;;5032703;28;20037;-68
2020/12/25 10:24:16;;;;;;;0.93;0.60;;;9.60;84.80;;;;;;5033096;28;20102;-68
2020/12/25 10:26:46;;;;;;;1.30;0.70;;;9.50;83.90;;;;;;5032764;28;20461;-67
2020/12/25 10:29:12;;;;;;;2.37;1.40;;;9.40;83.80;;;;;;5033277;28;20021;-68
2020/12/25 10:31:38;;;;;;;2.60;1.63;;;9.40;84.70;;;;;;5033220;28;20056;-68
2020/12/25 10:34:04;;;;;;;4.80;1.60;;;9.40;86.50;;;;;;5033194;28;20052;-68
2020/12/25 10:36:29;;;;;;;2.83;2.20;;;9.30;87.50;;;;;;5033087;28;20094;-69
2020/12/25 10:38:55;;;;;;;2.42;1.80;;;9.30;87.50;;;;;;5033000;28;20022;-68
2020/12/25 10:41:28;;;;;;;3.30;2.00;;;9.30;87.20;;;;;;5033250;28;20068;-68
2020/12/25 10:43:53;;;;;;;2.78;1.80;;;9.30;86.30;;;;;;5032332;28;20390;-68
2020/12/25 10:46:19;;;;;;;2.50;1.67;;;9.30;87.50;;;;;;5032707;28;20025;-68
2020/12/25 10:48:45;;;;;;;2.87;1.80;;;9.30;87.60;;;;;;5032892;28;20026;-68
2020/12/25 10:51:11;;;;;;;3.33;2.57;;;9.30;87.00;;;;;;5032912;28;20021;-68
2020/12/25 10:53:36;;;;;;;3.95;2.15;;;9.30;87.80;;;;;;5033152;28;20478;-68
2020/12/25 10:56:02;;;;;;;3.83;0.90;;;9.30;88.10;;;;;;5032889;28;20026;-68
2020/12/25 10:58:28;;;;;;;0.93;0.73;;;9.40;85.30;;;;;;5031119;28;20080;-68
2020/12/25 11:00:53;;;;;;;4.07;2.63;;;9.30;84.20;;;;;;5030082;28;20079;-68
2020/12/25 11:03:19;;;;;;;2.70;1.40;;;9.30;86.10;;;;;;5030270;28;20533;-68
2020/12/25 11:05:48;;;;;;;1.80;1.30;;;9.30;85.60;;;;;;5032920;28;20396;-67
2020/12/25 11:08:14;;;;;;;1.20;0.90;;;9.30;85.30;;;;;;5032850;28;20445;-69
2020/12/25 11:10:45;;;;;;;1.20;0.80;;;9.30;84.80;;;;;;5032799;28;20026;-68
2020/12/25 11:13:11;;;;;;;0.97;0.77;;;9.20;83.70;;;;;;5032982;28;20352;-68
2020/12/25 11:15:40;;;;;;;2.17;0.83;;;9.20;83.90;;;;;;5032543;28;20044;-68
2020/12/25 11:18:07;;;;;;;2.13;1.10;;;9.20;83.40;;;;;;5032541;28;20033;-68
2020/12/25 11:20:32;;;;;;;0.87;0.53;;;9.20;84.20;;;;;;5032471;28;20104;-68
2020/12/25 11:22:58;;;;;;;0.83;0.53;;;9.20;82.20;;;;;;5031199;28;20558;-68
2020/12/25 11:25:24;;;;;;;1.00;0.77;;;9.20;82.60;;;;;;5029617;28;20030;-68
2020/12/25 11:27:49;;;;;;;11.00;6.60;;;9.20;83.90;;;;;;5029824;28;20056;-68
2020/12/25 11:30:15;;;;;;;2.93;1.67;;;9.10;85.50;;;;;;5031194;28;20151;-68
2020/12/25 11:32:41;;;;;;;7.97;4.83;;;9.10;85.40;;;;;;5032675;28;20505;-68
2020/12/25 11:35:06;;;;;;;3.97;2.40;;;9.10;86.60;;;;;;5032004;28;20026;-72
2020/12/25 11:37:32;;;;;;;1.27;0.60;;;9.10;85.90;;;;;;5032038;28;20073;-68
2020/12/25 11:39:58;;;;;;;0.97;0.40;;;9.20;83.50;;;;;;5032304;28;20496;-68
2020/12/25 11:42:23;;;;;;;0.70;0.40;;;9.20;80.50;;;;;;5032124;28;20041;-72
2020/12/25 11:44:49;;;;;;;0.63;0.40;;;9.30;80.30;;;;;;5031935;28;20030;-68
2020/12/25 11:47:15;;;;;;;0.97;0.60;;;9.30;80.30;;;;;;5032012;28;20057;-68
2020/12/25 11:49:40;;;;;;;1.27;0.53;;;9.30;81.90;;;;;;5032105;28;20028;-68
2020/12/25 11:52:06;;;;;;;4.80;3.47;;;9.20;81.20;;;;;;5032311;28;20017;-68
2020/12/25 11:54:32;;;;;;;3.10;2.37;;;9.20;81.60;;;;;;5031959;28;20037;-68
2020/12/25 11:56:57;;;;;;;8.77;5.47;;;9.10;82.30;;;;;;5035035;28;20022;-68
2020/12/25 11:59:23;;;;;;;4.17;3.03;;;9.10;82.80;;;;;;5035984;28;20028;-68
2020/12/25 12:01:49;;;;;;;5.63;2.70;;;9.00;84.40;;;;;;5035690;28;20390;-67
2020/12/25 12:04:14;;;;;;;1.80;1.30;;;9.00;84.50;;;;;;5035628;28;20059;-68
2020/12/25 12:06:41;;;;;;;9.00;6.77;;;8.90;86.00;;;;;;5035689;28;20112;-68
2020/12/25 12:09:07;;;;;;;9.40;4.20;;;8.90;85.80;;;;;;5035390;28;20021;-68
2020/12/25 12:11:39;;;;;;;2.80;1.97;;;8.80;86.20;;;;;;5035636;28;20482;-68
2020/12/25 12:14:05;;;;;;;1.15;0.85;;;8.80;87.10;;;;;;5035747;28;20092;-69
2020/12/25 12:16:30;;;;;;;1.77;1.23;;;8.80;85.80;;;;;;5035360;28;20117;-68
2020/12/25 12:18:56;;;;;;;3.33;2.20;;;8.90;85.10;;;;;;5035399;28;20053;-74
2020/12/25 12:21:25;;;;;;;1.67;1.10;;;8.90;84.90;;;;;;5035305;28;20033;-67
2020/12/25 12:23:50;;;;;;;3.53;2.40;;;8.90;84.80;;;;;;5035295;28;20048;-68
2020/12/25 12:26:16;;;;;;;2.10;1.67;;;8.90;85.80;;;;;;5035181;28;20033;-68
2020/12/25 12:28:42;;;;;;;3.07;1.30;;;8.90;86.70;;;;;;5035395;28;20020;-69
2020/12/25 12:31:07;;;;;;;2.63;1.87;;;8.80;88.40;;;;;;5035104;28;20425;-68
2020/12/25 12:33:33;;;;;;;6.07;3.67;;;8.80;88.00;;;;;;5035229;28;20036;-68
2020/12/25 12:35:59;;;;;;;4.33;3.03;;;8.80;87.40;;;;;;5035039;28;20037;-68
2020/12/25 12:38:25;;;;;;;4.80;3.00;;;8.80;87.50;;;;;;5034772;28;20033;-68